PWSweather.com
Personal Weather Stations
Station Observations
ITROMSHA6
HarstadNO 9407

HarstadNO 9407

Lat: 68.7814767, Lon: 16.5297091

Elevation: 145

Station Type: Davis Vantage Pro2

High Low Average
Temperature 52.5°F11.4°C 39.3°F4.1°C 46.7°F8.2°C
Dew Point 43.2°F6.2°C 36.5°F2.5°C 40.4°F4.7°C
Winds 10.0 mph 16.1 kmh Calm Calm 4.0 mph S6.4 kmh S
Wind Gusts 13.0 mph20.9 kmh -- 1.0 mph1.6 kmh
Humidity 90% 67% 79%
Pressure 29.72 in1006.4 mb 29.50 in999.0 mb -
Precipitation 0.00 in0.0 mm - -
Hour Temp Dew Point Humidity Winds Wind Gusts Pressure Precip Precip Rate Daily Precip Total
12:00 AM 41.9°F5.5°C 38.3°F3.5°C 87% 4.0 mph WSW6.4 kmh WSW 6.0 mph9.7 kmh 29.50 in999.0 mb 0.00 in0.0 mm 0.00 in0.0 mm 0.00 in0.0 mm
12:05 AM 41.8°F5.4°C 38.1°F3.4°C 87% 5.0 mph WSW8.0 kmh WSW -- 29.50 in999.0 mb 0.00 in0.0 mm 0.00 in0.0 mm 0.00 in0.0 mm
12:10 AM 41.9°F5.5°C 38.7°F3.7°C 88% 5.0 mph WSW8.0 kmh WSW -- 29.50 in999.0 mb 0.00 in0.0 mm 0.00 in0.0 mm 0.00 in0.0 mm
12:15 AM 42.0°F5.6°C 38.8°F3.8°C 88% 5.0 mph WSW8.0 kmh WSW -- 29.50 in999.0 mb 0.00 in0.0 mm 0.00 in0.0 mm 0.00 in0.0 mm
12:20 AM 42.1°F5.6°C 38.8°F3.8°C 88% 5.0 mph WSW8.0 kmh WSW -- 29.50 in999.0 mb 0.00 in0.0 mm 0.00 in0.0 mm 0.00 in0.0 mm
12:25 AM 42.2°F5.7°C 39.0°F3.9°C 88% 5.0 mph W8.0 kmh W 8.0 mph12.9 kmh 29.50 in999.0 mb 0.00 in0.0 mm 0.00 in0.0 mm 0.00 in0.0 mm
12:30 AM 42.1°F5.6°C 38.8°F3.8°C 88% 3.0 mph SW4.8 kmh SW -- 29.50 in999.0 mb 0.00 in0.0 mm 0.00 in0.0 mm 0.00 in0.0 mm
12:35 AM 42.2°F5.7°C 39.0°F3.9°C 88% 4.0 mph WSW6.4 kmh WSW -- 29.50 in999.0 mb 0.00 in0.0 mm 0.00 in0.0 mm 0.00 in0.0 mm
12:40 AM 42.3°F5.7°C 39.0°F3.9°C 88% 3.0 mph WSW4.8 kmh WSW -- 29.50 in999.0 mb 0.00 in0.0 mm 0.00 in0.0 mm 0.00 in0.0 mm
12:45 AM 42.3°F5.7°C 39.0°F3.9°C 88% 6.0 mph SW9.7 kmh SW -- 29.50 in999.0 mb 0.00 in0.0 mm 0.00 in0.0 mm 0.00 in0.0 mm
12:50 AM 42.5°F5.8°C 39.2°F4.0°C 88% 5.0 mph W8.0 kmh W 7.0 mph11.3 kmh 29.50 in999.0 mb 0.00 in0.0 mm 0.00 in0.0 mm 0.00 in0.0 mm
12:55 AM 42.7°F5.9°C 39.4°F4.1°C 88% 3.0 mph WSW4.8 kmh WSW -- 29.50 in999.0 mb 0.00 in0.0 mm 0.00 in0.0 mm 0.00 in0.0 mm
01:00 AM 42.7°F5.9°C 39.4°F4.1°C 88% 4.0 mph WSW6.4 kmh WSW -- 29.50 in999.0 mb 0.00 in0.0 mm 0.00 in0.0 mm 0.00 in0.0 mm
01:05 AM 42.7°F5.9°C 39.4°F4.1°C 88% 5.0 mph WSW8.0 kmh WSW -- 29.50 in999.0 mb 0.00 in0.0 mm 0.00 in0.0 mm 0.00 in0.0 mm
01:10 AM 42.9°F6.1°C 39.7°F4.3°C 88% 5.0 mph WSW8.0 kmh WSW -- 29.50 in999.0 mb 0.00 in0.0 mm 0.00 in0.0 mm 0.00 in0.0 mm
01:15 AM 43.1°F6.2°C 39.6°F4.2°C 87% 4.0 mph WSW6.4 kmh WSW 7.0 mph11.3 kmh 29.50 in999.0 mb 0.00 in0.0 mm 0.00 in0.0 mm 0.00 in0.0 mm
01:20 AM 43.2°F6.2°C 39.6°F4.2°C 87% 5.0 mph WSW8.0 kmh WSW -- 29.50 in999.0 mb 0.00 in0.0 mm 0.00 in0.0 mm 0.00 in0.0 mm
01:25 AM 43.1°F6.2°C 39.6°F4.2°C 87% 4.0 mph WSW6.4 kmh WSW -- 29.51 in999.3 mb 0.00 in0.0 mm 0.00 in0.0 mm 0.00 in0.0 mm
01:30 AM 43.1°F6.2°C 39.6°F4.2°C 87% 3.0 mph WSW4.8 kmh WSW -- 29.50 in999.0 mb 0.00 in0.0 mm 0.00 in0.0 mm 0.00 in0.0 mm
01:35 AM 43.1°F6.2°C 39.6°F4.2°C 87% 4.0 mph WSW6.4 kmh WSW -- 29.51 in999.3 mb 0.00 in0.0 mm 0.00 in0.0 mm 0.00 in0.0 mm
01:40 AM 43.2°F6.2°C 39.6°F4.2°C 87% 4.0 mph W6.4 kmh W 7.0 mph11.3 kmh 29.51 in999.3 mb 0.00 in0.0 mm 0.00 in0.0 mm 0.00 in0.0 mm
01:45 AM 43.4°F6.3°C 39.7°F4.3°C 87% 4.0 mph SW6.4 kmh SW -- 29.51 in999.3 mb 0.00 in0.0 mm 0.00 in0.0 mm 0.00 in0.0 mm
01:50 AM 43.4°F6.3°C 39.4°F4.1°C 86% 4.0 mph SW6.4 kmh SW -- 29.51 in999.3 mb 0.00 in0.0 mm 0.00 in0.0 mm 0.00 in0.0 mm
01:55 AM 43.3°F6.3°C 39.4°F4.1°C 86% 3.0 mph SW4.8 kmh SW -- 29.51 in999.3 mb 0.00 in0.0 mm 0.00 in0.0 mm 0.00 in0.0 mm
02:00 AM 43.2°F6.2°C 39.2°F4.0°C 86% 3.0 mph WSW4.8 kmh WSW -- 29.51 in999.3 mb 0.00 in0.0 mm 0.00 in0.0 mm 0.00 in0.0 mm
02:05 AM 43.2°F6.2°C 39.2°F4.0°C 86% 3.0 mph WSW4.8 kmh WSW 5.0 mph8.0 kmh 29.51 in999.3 mb 0.00 in0.0 mm 0.00 in0.0 mm 0.00 in0.0 mm
02:10 AM 43.2°F6.2°C 39.2°F4.0°C 86% 5.0 mph WSW8.0 kmh WSW -- 29.51 in999.3 mb 0.00 in0.0 mm 0.00 in0.0 mm 0.00 in0.0 mm
02:15 AM 43.1°F6.2°C 39.2°F4.0°C 86% 2.0 mph WSW3.2 kmh WSW -- 29.51 in999.3 mb 0.00 in0.0 mm 0.00 in0.0 mm 0.00 in0.0 mm
02:20 AM 43.1°F6.2°C 39.2°F4.0°C 86% 4.0 mph WSW6.4 kmh WSW -- 29.51 in999.3 mb 0.00 in0.0 mm 0.00 in0.0 mm 0.00 in0.0 mm
02:25 AM 43.1°F6.2°C 39.2°F4.0°C 86% 5.0 mph WSW8.0 kmh WSW -- 29.51 in999.3 mb 0.00 in0.0 mm 0.00 in0.0 mm 0.00 in0.0 mm
02:30 AM 42.9°F6.1°C 39.0°F3.9°C 86% 5.0 mph WSW8.0 kmh WSW 6.0 mph9.7 kmh 29.51 in999.3 mb 0.00 in0.0 mm 0.00 in0.0 mm 0.00 in0.0 mm
02:35 AM 42.6°F5.9°C 38.7°F3.7°C 86% 5.0 mph WSW8.0 kmh WSW -- 29.51 in999.3 mb 0.00 in0.0 mm 0.00 in0.0 mm 0.00 in0.0 mm
02:40 AM 42.3°F5.7°C 38.7°F3.7°C 87% 4.0 mph SW6.4 kmh SW -- 29.51 in999.3 mb 0.00 in0.0 mm 0.00 in0.0 mm 0.00 in0.0 mm
02:45 AM 42.1°F5.6°C 38.5°F3.6°C 87% 4.0 mph WSW6.4 kmh WSW -- 29.51 in999.3 mb 0.00 in0.0 mm 0.00 in0.0 mm 0.00 in0.0 mm
02:50 AM 42.1°F5.6°C 38.5°F3.6°C 87% 4.0 mph WSW6.4 kmh WSW -- 29.51 in999.3 mb 0.00 in0.0 mm 0.00 in0.0 mm 0.00 in0.0 mm
02:55 AM 42.0°F5.6°C 38.5°F3.6°C 87% 5.0 mph WSW8.0 kmh WSW 6.0 mph9.7 kmh 29.51 in999.3 mb 0.00 in0.0 mm 0.00 in0.0 mm 0.00 in0.0 mm
03:00 AM 41.8°F5.4°C 38.1°F3.4°C 87% 3.0 mph WSW4.8 kmh WSW -- 29.52 in999.7 mb 0.00 in0.0 mm 0.00 in0.0 mm 0.00 in0.0 mm
03:05 AM 41.6°F5.3°C 37.9°F3.3°C 87% 5.0 mph SW8.0 kmh SW -- 29.52 in999.7 mb 0.00 in0.0 mm 0.00 in0.0 mm 0.00 in0.0 mm
03:10 AM 41.5°F5.3°C 37.9°F3.3°C 87% 5.0 mph WSW8.0 kmh WSW -- 29.52 in999.7 mb 0.00 in0.0 mm 0.00 in0.0 mm 0.00 in0.0 mm
03:15 AM 41.5°F5.3°C 38.3°F3.5°C 88% 4.0 mph SW6.4 kmh SW -- 29.52 in999.7 mb 0.00 in0.0 mm 0.00 in0.0 mm 0.00 in0.0 mm
03:20 AM 41.3°F5.2°C 38.1°F3.4°C 88% 4.0 mph WSW6.4 kmh WSW 7.0 mph11.3 kmh 29.52 in999.7 mb 0.00 in0.0 mm 0.00 in0.0 mm 0.00 in0.0 mm
03:25 AM 41.3°F5.2°C 38.1°F3.4°C 88% 3.0 mph WSW4.8 kmh WSW -- 29.52 in999.7 mb 0.00 in0.0 mm 0.00 in0.0 mm 0.00 in0.0 mm
03:30 AM 41.3°F5.2°C 37.8°F3.2°C 87% 6.0 mph SW9.7 kmh SW -- 29.52 in999.7 mb 0.00 in0.0 mm 0.00 in0.0 mm 0.00 in0.0 mm
03:35 AM 41.3°F5.2°C 38.1°F3.4°C 88% 6.0 mph SW9.7 kmh SW -- 29.52 in999.7 mb 0.00 in0.0 mm 0.00 in0.0 mm 0.00 in0.0 mm
03:40 AM 41.1°F5.1°C 37.6°F3.1°C 87% 3.0 mph WSW4.8 kmh WSW -- 29.52 in999.7 mb 0.00 in0.0 mm 0.00 in0.0 mm 0.00 in0.0 mm
03:45 AM 40.9°F4.9°C 37.2°F2.9°C 87% 4.0 mph WSW6.4 kmh WSW 6.0 mph9.7 kmh 29.52 in999.7 mb 0.00 in0.0 mm 0.00 in0.0 mm 0.00 in0.0 mm
03:50 AM 40.7°F4.8°C 37.4°F3.0°C 88% 4.0 mph WSW6.4 kmh WSW -- 29.52 in999.7 mb 0.00 in0.0 mm 0.00 in0.0 mm 0.00 in0.0 mm
03:55 AM 40.5°F4.7°C 37.2°F2.9°C 88% 5.0 mph WSW8.0 kmh WSW -- 29.52 in999.7 mb 0.00 in0.0 mm 0.00 in0.0 mm 0.00 in0.0 mm
04:00 AM 40.4°F4.7°C 37.2°F2.9°C 88% 6.0 mph WSW9.7 kmh WSW -- 29.52 in999.7 mb 0.00 in0.0 mm 0.00 in0.0 mm 0.00 in0.0 mm
04:05 AM 40.3°F4.6°C 37.0°F2.8°C 88% 4.0 mph WSW6.4 kmh WSW -- 29.52 in999.7 mb 0.00 in0.0 mm 0.00 in0.0 mm 0.00 in0.0 mm
04:10 AM 40.1°F4.5°C 36.9°F2.7°C 88% 6.0 mph WSW9.7 kmh WSW 8.0 mph12.9 kmh 29.52 in999.7 mb 0.00 in0.0 mm 0.00 in0.0 mm 0.00 in0.0 mm
04:15 AM 40.2°F4.6°C 37.0°F2.8°C 88% 6.0 mph WSW9.7 kmh WSW -- 29.52 in999.7 mb 0.00 in0.0 mm 0.00 in0.0 mm 0.00 in0.0 mm
04:20 AM 40.1°F4.5°C 36.9°F2.7°C 88% 7.0 mph SW11.3 kmh SW -- 29.52 in999.7 mb 0.00 in0.0 mm 0.00 in0.0 mm 0.00 in0.0 mm
04:25 AM 39.8°F4.3°C 36.5°F2.5°C 88% 6.0 mph WSW9.7 kmh WSW -- 29.52 in999.7 mb 0.00 in0.0 mm 0.00 in0.0 mm 0.00 in0.0 mm
04:30 AM 39.7°F4.3°C 36.7°F2.6°C 89% 5.0 mph WSW8.0 kmh WSW -- 29.52 in999.7 mb 0.00 in0.0 mm 0.00 in0.0 mm 0.00 in0.0 mm
04:35 AM 39.7°F4.3°C 36.7°F2.6°C 89% 4.0 mph WSW6.4 kmh WSW 8.0 mph12.9 kmh 29.52 in999.7 mb 0.00 in0.0 mm 0.00 in0.0 mm 0.00 in0.0 mm
04:40 AM 40.0°F4.4°C 36.9°F2.7°C 89% 6.0 mph WSW9.7 kmh WSW -- 29.52 in999.7 mb 0.00 in0.0 mm 0.00 in0.0 mm 0.00 in0.0 mm
04:45 AM 40.2°F4.6°C 37.2°F2.9°C 89% 5.0 mph WSW8.0 kmh WSW -- 29.52 in999.7 mb 0.00 in0.0 mm 0.00 in0.0 mm 0.00 in0.0 mm
04:50 AM 40.0°F4.4°C 36.7°F2.6°C 88% 5.0 mph WSW8.0 kmh WSW -- 29.52 in999.7 mb 0.00 in0.0 mm 0.00 in0.0 mm 0.00 in0.0 mm
04:55 AM 39.7°F4.3°C 36.5°F2.5°C 88% 6.0 mph WSW9.7 kmh WSW -- 29.53 in1000.0 mb 0.00 in0.0 mm 0.00 in0.0 mm 0.00 in0.0 mm
05:00 AM 39.8°F4.3°C 36.7°F2.6°C 89% 6.0 mph WSW9.7 kmh WSW 9.0 mph14.5 kmh 29.53 in1000.0 mb 0.00 in0.0 mm 0.00 in0.0 mm 0.00 in0.0 mm
05:05 AM 40.0°F4.4°C 36.7°F2.6°C 88% 7.0 mph W11.3 kmh W -- 29.53 in1000.0 mb 0.00 in0.0 mm 0.00 in0.0 mm 0.00 in0.0 mm
05:10 AM 39.9°F4.4°C 36.7°F2.6°C 88% 5.0 mph WSW8.0 kmh WSW -- 29.53 in1000.0 mb 0.00 in0.0 mm 0.00 in0.0 mm 0.00 in0.0 mm
05:15 AM 39.8°F4.3°C 36.7°F2.6°C 89% 6.0 mph WSW9.7 kmh WSW -- 29.53 in1000.0 mb 0.00 in0.0 mm 0.00 in0.0 mm 0.00 in0.0 mm
05:20 AM 39.7°F4.3°C 36.5°F2.5°C 88% 5.0 mph SW8.0 kmh SW -- 29.53 in1000.0 mb 0.00 in0.0 mm 0.00 in0.0 mm 0.00 in0.0 mm
05:25 AM 39.6°F4.2°C 36.7°F2.6°C 89% 5.0 mph WSW8.0 kmh WSW 8.0 mph12.9 kmh 29.53 in1000.0 mb 0.00 in0.0 mm 0.00 in0.0 mm 0.00 in0.0 mm
05:30 AM 39.6°F4.2°C 36.7°F2.6°C 89% 6.0 mph SW9.7 kmh SW -- 29.53 in1000.0 mb 0.00 in0.0 mm 0.00 in0.0 mm 0.00 in0.0 mm
05:35 AM 39.4°F4.1°C 36.5°F2.5°C 89% 6.0 mph WSW9.7 kmh WSW -- 29.53 in1000.0 mb 0.00 in0.0 mm 0.00 in0.0 mm 0.00 in0.0 mm
05:40 AM 39.5°F4.2°C 36.7°F2.6°C 89% 4.0 mph WSW6.4 kmh WSW -- 29.53 in1000.0 mb 0.00 in0.0 mm 0.00 in0.0 mm 0.00 in0.0 mm
05:45 AM 39.5°F4.2°C 36.7°F2.6°C 89% 5.0 mph WSW8.0 kmh WSW -- 29.53 in1000.0 mb 0.00 in0.0 mm 0.00 in0.0 mm 0.00 in0.0 mm
05:50 AM 39.5°F4.2°C 36.7°F2.6°C 89% 5.0 mph WSW8.0 kmh WSW 8.0 mph12.9 kmh 29.53 in1000.0 mb 0.00 in0.0 mm 0.00 in0.0 mm 0.00 in0.0 mm
05:55 AM 39.3°F4.1°C 36.5°F2.5°C 89% 4.0 mph WSW6.4 kmh WSW -- 29.53 in1000.0 mb 0.00 in0.0 mm 0.00 in0.0 mm 0.00 in0.0 mm
06:00 AM 39.5°F4.2°C 36.9°F2.7°C 90% 5.0 mph W8.0 kmh W -- 29.53 in1000.0 mb 0.00 in0.0 mm 0.00 in0.0 mm 0.00 in0.0 mm
06:05 AM 39.6°F4.2°C 36.7°F2.6°C 89% 5.0 mph WSW8.0 kmh WSW -- 29.53 in1000.0 mb 0.00 in0.0 mm 0.00 in0.0 mm 0.00 in0.0 mm
06:10 AM 39.7°F4.3°C 36.7°F2.6°C 89% 6.0 mph WSW9.7 kmh WSW -- 29.53 in1000.0 mb 0.00 in0.0 mm 0.00 in0.0 mm 0.00 in0.0 mm
06:15 AM 40.0°F4.4°C 36.9°F2.7°C 89% 5.0 mph W8.0 kmh W 7.0 mph11.3 kmh 29.53 in1000.0 mb 0.00 in0.0 mm 0.00 in0.0 mm 0.00 in0.0 mm
06:20 AM 40.2°F4.6°C 37.2°F2.9°C 89% 6.0 mph WSW9.7 kmh WSW -- 29.53 in1000.0 mb 0.00 in0.0 mm 0.00 in0.0 mm 0.00 in0.0 mm
06:25 AM 40.4°F4.7°C 37.4°F3.0°C 89% 3.0 mph WSW4.8 kmh WSW -- 29.54 in1000.3 mb 0.00 in0.0 mm 0.00 in0.0 mm 0.00 in0.0 mm
06:30 AM 40.5°F4.7°C 37.4°F3.0°C 89% 3.0 mph WSW4.8 kmh WSW -- 29.54 in1000.3 mb 0.00 in0.0 mm 0.00 in0.0 mm 0.00 in0.0 mm
06:35 AM 40.9°F4.9°C 38.1°F3.4°C 90% 4.0 mph SW6.4 kmh SW -- 29.54 in1000.3 mb 0.00 in0.0 mm 0.00 in0.0 mm 0.00 in0.0 mm
06:40 AM 41.4°F5.2°C 38.3°F3.5°C 89% 4.0 mph SW6.4 kmh SW 6.0 mph9.7 kmh 29.54 in1000.3 mb 0.00 in0.0 mm 0.00 in0.0 mm 0.00 in0.0 mm
06:45 AM 41.7°F5.4°C 38.7°F3.7°C 89% 5.0 mph WSW8.0 kmh WSW -- 29.54 in1000.3 mb 0.00 in0.0 mm 0.00 in0.0 mm 0.00 in0.0 mm
06:50 AM 42.2°F5.7°C 39.0°F3.9°C 88% 4.0 mph SW6.4 kmh SW -- 29.54 in1000.3 mb 0.00 in0.0 mm 0.00 in0.0 mm 0.00 in0.0 mm
06:55 AM 42.8°F6.0°C 39.6°F4.2°C 88% 3.0 mph WSW4.8 kmh WSW -- 29.54 in1000.3 mb 0.00 in0.0 mm 0.00 in0.0 mm 0.00 in0.0 mm
07:00 AM 43.1°F6.2°C 39.9°F4.4°C 88% 3.0 mph WSW4.8 kmh WSW -- 29.54 in1000.3 mb 0.00 in0.0 mm 0.00 in0.0 mm 0.00 in0.0 mm
07:05 AM 44.0°F6.7°C 40.8°F4.9°C 88% 4.0 mph WSW6.4 kmh WSW 5.0 mph8.0 kmh 29.54 in1000.3 mb 0.00 in0.0 mm 0.00 in0.0 mm 0.00 in0.0 mm
07:10 AM 44.3°F6.8°C 40.6°F4.8°C 87% 4.0 mph SW6.4 kmh SW -- 29.54 in1000.3 mb 0.00 in0.0 mm 0.00 in0.0 mm 0.00 in0.0 mm
07:15 AM 44.7°F7.1°C 41.2°F5.1°C 87% 3.0 mph SW4.8 kmh SW -- 29.54 in1000.3 mb 0.00 in0.0 mm 0.00 in0.0 mm 0.00 in0.0 mm
07:20 AM 45.1°F7.3°C 41.5°F5.3°C 87% 3.0 mph SW4.8 kmh SW -- 29.54 in1000.3 mb 0.00 in0.0 mm 0.00 in0.0 mm 0.00 in0.0 mm
07:25 AM 45.6°F7.6°C 42.1°F5.6°C 87% 2.0 mph SW3.2 kmh SW -- 29.55 in1000.7 mb 0.00 in0.0 mm 0.00 in0.0 mm 0.00 in0.0 mm
07:30 AM 46.0°F7.8°C 42.1°F5.6°C 86% 3.0 mph SW4.8 kmh SW 4.0 mph6.4 kmh 29.55 in1000.7 mb 0.00 in0.0 mm 0.00 in0.0 mm 0.00 in0.0 mm
07:35 AM 46.2°F7.9°C 41.9°F5.5°C 85% 3.0 mph SW4.8 kmh SW -- 29.55 in1000.7 mb 0.00 in0.0 mm 0.00 in0.0 mm 0.00 in0.0 mm
07:40 AM 46.3°F7.9°C 41.9°F5.5°C 85% 2.0 mph SW3.2 kmh SW -- 29.55 in1000.7 mb 0.00 in0.0 mm 0.00 in0.0 mm 0.00 in0.0 mm
07:45 AM 46.5°F8.1°C 42.6°F5.9°C 86% 2.0 mph SW3.2 kmh SW -- 29.55 in1000.7 mb 0.00 in0.0 mm 0.00 in0.0 mm 0.00 in0.0 mm
07:50 AM 46.8°F8.2°C 42.8°F6.0°C 86% 1.0 mph SW1.6 kmh SW -- 29.55 in1000.7 mb 0.00 in0.0 mm 0.00 in0.0 mm 0.00 in0.0 mm
07:55 AM 47.0°F8.3°C 42.6°F5.9°C 85% 1.0 mph SW1.6 kmh SW 3.0 mph4.8 kmh 29.55 in1000.7 mb 0.00 in0.0 mm 0.00 in0.0 mm 0.00 in0.0 mm
08:00 AM 47.5°F8.6°C 43.0°F6.1°C 84% Calm Calm -- 29.55 in1000.7 mb 0.00 in0.0 mm 0.00 in0.0 mm 0.00 in0.0 mm
08:05 AM 48.0°F8.9°C 43.2°F6.2°C 83% Calm Calm -- 29.55 in1000.7 mb 0.00 in0.0 mm 0.00 in0.0 mm 0.00 in0.0 mm
08:10 AM 48.5°F9.2°C 43.0°F6.1°C 81% Calm Calm -- 29.55 in1000.7 mb 0.00 in0.0 mm 0.00 in0.0 mm 0.00 in0.0 mm
08:15 AM 48.9°F9.4°C 42.4°F5.8°C 78% Calm Calm -- 29.55 in1000.7 mb 0.00 in0.0 mm 0.00 in0.0 mm 0.00 in0.0 mm
08:20 AM 49.7°F9.8°C 43.0°F6.1°C 78% Calm Calm 1.0 mph1.6 kmh 29.55 in1000.7 mb 0.00 in0.0 mm 0.00 in0.0 mm 0.00 in0.0 mm
08:25 AM 50.3°F10.2°C 42.8°F6.0°C 75% Calm Calm -- 29.55 in1000.7 mb 0.00 in0.0 mm 0.00 in0.0 mm 0.00 in0.0 mm
08:30 AM 50.6°F10.3°C 42.3°F5.7°C 73% Calm Calm -- 29.55 in1000.7 mb 0.00 in0.0 mm 0.00 in0.0 mm 0.00 in0.0 mm
08:35 AM 50.8°F10.4°C 41.4°F5.2°C 70% Calm Calm -- 29.55 in1000.7 mb 0.00 in0.0 mm 0.00 in0.0 mm 0.00 in0.0 mm
08:40 AM 51.1°F10.6°C 40.8°F4.9°C 68% 1.0 mph SW1.6 kmh SW -- 29.56 in1001.0 mb 0.00 in0.0 mm 0.00 in0.0 mm 0.00 in0.0 mm
08:45 AM 51.2°F10.7°C 41.0°F5.0°C 68% 1.0 mph SSE1.6 kmh SSE 4.0 mph6.4 kmh 29.56 in1001.0 mb 0.00 in0.0 mm 0.00 in0.0 mm 0.00 in0.0 mm
08:50 AM 51.4°F10.8°C 41.2°F5.1°C 68% Calm Calm -- 29.56 in1001.0 mb 0.00 in0.0 mm 0.00 in0.0 mm 0.00 in0.0 mm
08:55 AM 52.0°F11.1°C 42.1°F5.6°C 69% Calm Calm -- 29.56 in1001.0 mb 0.00 in0.0 mm 0.00 in0.0 mm 0.00 in0.0 mm
09:00 AM 52.5°F11.4°C 42.3°F5.7°C 68% Calm Calm -- 29.56 in1001.0 mb 0.00 in0.0 mm 0.00 in0.0 mm 0.00 in0.0 mm
09:05 AM 52.1°F11.2°C 41.9°F5.5°C 68% 1.0 mph ENE1.6 kmh ENE -- 29.56 in1001.0 mb 0.00 in0.0 mm 0.00 in0.0 mm 0.00 in0.0 mm
09:10 AM 51.9°F11.1°C 41.7°F5.4°C 68% 3.0 mph ENE4.8 kmh ENE 3.0 mph4.8 kmh 29.56 in1001.0 mb 0.00 in0.0 mm 0.00 in0.0 mm 0.00 in0.0 mm
09:15 AM 51.5°F10.8°C 41.5°F5.3°C 69% 2.0 mph E3.2 kmh E -- 29.57 in1001.4 mb 0.00 in0.0 mm 0.00 in0.0 mm 0.00 in0.0 mm
09:20 AM 51.3°F10.7°C 41.9°F5.5°C 70% 5.0 mph NE8.0 kmh NE -- 29.57 in1001.4 mb 0.00 in0.0 mm 0.00 in0.0 mm 0.00 in0.0 mm
09:25 AM 51.1°F10.6°C 41.7°F5.4°C 70% 3.0 mph NNE4.8 kmh NNE -- 29.57 in1001.4 mb 0.00 in0.0 mm 0.00 in0.0 mm 0.00 in0.0 mm
09:30 AM 50.8°F10.4°C 41.0°F5.0°C 69% 4.0 mph NNE6.4 kmh NNE -- 29.57 in1001.4 mb 0.00 in0.0 mm 0.00 in0.0 mm 0.00 in0.0 mm
09:35 AM 50.8°F10.4°C 40.5°F4.7°C 68% 5.0 mph NE8.0 kmh NE 8.0 mph12.9 kmh 29.57 in1001.4 mb 0.00 in0.0 mm 0.00 in0.0 mm 0.00 in0.0 mm
09:40 AM 51.1°F10.6°C 42.4°F5.8°C 72% 7.0 mph NNE11.3 kmh NNE -- 29.57 in1001.4 mb 0.00 in0.0 mm 0.00 in0.0 mm 0.00 in0.0 mm
09:45 AM 51.2°F10.7°C 41.9°F5.5°C 70% 7.0 mph ENE11.3 kmh ENE -- 29.57 in1001.4 mb 0.00 in0.0 mm 0.00 in0.0 mm 0.00 in0.0 mm
09:50 AM 50.8°F10.4°C 41.7°F5.4°C 71% 9.0 mph NE14.5 kmh NE -- 29.57 in1001.4 mb 0.00 in0.0 mm 0.00 in0.0 mm 0.00 in0.0 mm
09:55 AM 51.0°F10.6°C 42.1°F5.6°C 71% 7.0 mph NE11.3 kmh NE -- 29.57 in1001.4 mb 0.00 in0.0 mm 0.00 in0.0 mm 0.00 in0.0 mm
10:00 AM 51.2°F10.7°C 42.3°F5.7°C 71% 9.0 mph NNE14.5 kmh NNE 10.0 mph16.1 kmh 29.57 in1001.4 mb 0.00 in0.0 mm 0.00 in0.0 mm 0.00 in0.0 mm
10:05 AM 50.8°F10.4°C 41.4°F5.2°C 70% 6.0 mph NE9.7 kmh NE -- 29.58 in1001.7 mb 0.00 in0.0 mm 0.00 in0.0 mm 0.00 in0.0 mm
10:10 AM 50.7°F10.4°C 41.7°F5.4°C 71% 4.0 mph NNE6.4 kmh NNE -- 29.58 in1001.7 mb 0.00 in0.0 mm 0.00 in0.0 mm 0.00 in0.0 mm
10:15 AM 50.8°F10.4°C 41.0°F5.0°C 69% 8.0 mph NNE12.9 kmh NNE -- 29.58 in1001.7 mb 0.00 in0.0 mm 0.00 in0.0 mm 0.00 in0.0 mm
10:20 AM 50.8°F10.4°C 41.0°F5.0°C 69% 6.0 mph NE9.7 kmh NE -- 29.58 in1001.7 mb 0.00 in0.0 mm 0.00 in0.0 mm 0.00 in0.0 mm
10:25 AM 50.8°F10.4°C 41.0°F5.0°C 69% 5.0 mph NE8.0 kmh NE 10.0 mph16.1 kmh 29.58 in1001.7 mb 0.00 in0.0 mm 0.00 in0.0 mm 0.00 in0.0 mm
10:30 AM 51.0°F10.6°C 41.2°F5.1°C 69% 7.0 mph NNE11.3 kmh NNE -- 29.58 in1001.7 mb 0.00 in0.0 mm 0.00 in0.0 mm 0.00 in0.0 mm
10:35 AM 50.8°F10.4°C 41.4°F5.2°C 70% 10.0 mph NE16.1 kmh NE -- 29.59 in1002.0 mb 0.00 in0.0 mm 0.00 in0.0 mm 0.00 in0.0 mm
10:40 AM 50.6°F10.3°C 40.8°F4.9°C 69% 4.0 mph NE6.4 kmh NE -- 29.59 in1002.0 mb 0.00 in0.0 mm 0.00 in0.0 mm 0.00 in0.0 mm
10:45 AM 50.5°F10.3°C 41.2°F5.1°C 70% 9.0 mph NNE14.5 kmh NNE -- 29.59 in1002.0 mb 0.00 in0.0 mm 0.00 in0.0 mm 0.00 in0.0 mm
10:50 AM 50.4°F10.2°C 41.0°F5.0°C 70% 6.0 mph NNE9.7 kmh NNE 13.0 mph20.9 kmh 29.59 in1002.0 mb 0.00 in0.0 mm 0.00 in0.0 mm 0.00 in0.0 mm
10:55 AM 50.4°F10.2°C 41.0°F5.0°C 70% 6.0 mph ENE9.7 kmh ENE -- 29.59 in1002.0 mb 0.00 in0.0 mm 0.00 in0.0 mm 0.00 in0.0 mm
11:00 AM 50.5°F10.3°C 41.2°F5.1°C 70% 5.0 mph ENE8.0 kmh ENE -- 29.59 in1002.0 mb 0.00 in0.0 mm 0.00 in0.0 mm 0.00 in0.0 mm
11:05 AM 50.6°F10.3°C 40.8°F4.9°C 69% 6.0 mph NE9.7 kmh NE -- 29.59 in1002.0 mb 0.00 in0.0 mm 0.00 in0.0 mm 0.00 in0.0 mm
11:10 AM 50.5°F10.3°C 41.2°F5.1°C 70% 5.0 mph NE8.0 kmh NE -- 29.59 in1002.0 mb 0.00 in0.0 mm 0.00 in0.0 mm 0.00 in0.0 mm
11:15 AM 50.5°F10.3°C 41.2°F5.1°C 70% 7.0 mph NE11.3 kmh NE 10.0 mph16.1 kmh 29.59 in1002.0 mb 0.00 in0.0 mm 0.00 in0.0 mm 0.00 in0.0 mm
11:20 AM 50.2°F10.1°C 40.5°F4.7°C 69% 7.0 mph NNE11.3 kmh NNE -- 29.60 in1002.4 mb 0.00 in0.0 mm 0.00 in0.0 mm 0.00 in0.0 mm
11:25 AM 50.2°F10.1°C 40.8°F4.9°C 70% 5.0 mph NNE8.0 kmh NNE -- 29.60 in1002.4 mb 0.00 in0.0 mm 0.00 in0.0 mm 0.00 in0.0 mm
11:30 AM 50.5°F10.3°C 41.2°F5.1°C 70% 7.0 mph NNE11.3 kmh NNE -- 29.60 in1002.4 mb 0.00 in0.0 mm 0.00 in0.0 mm 0.00 in0.0 mm
11:35 AM 50.4°F10.2°C 40.6°F4.8°C 69% 5.0 mph NE8.0 kmh NE -- 29.60 in1002.4 mb 0.00 in0.0 mm 0.00 in0.0 mm 0.00 in0.0 mm
11:40 AM 50.5°F10.3°C 40.8°F4.9°C 69% 7.0 mph ENE11.3 kmh ENE 8.0 mph12.9 kmh 29.60 in1002.4 mb 0.00 in0.0 mm 0.00 in0.0 mm 0.00 in0.0 mm
11:45 AM 50.6°F10.3°C 41.2°F5.1°C 70% 4.0 mph NE6.4 kmh NE -- 29.60 in1002.4 mb 0.00 in0.0 mm 0.00 in0.0 mm 0.00 in0.0 mm
11:50 AM 50.6°F10.3°C 40.8°F4.9°C 69% 3.0 mph NE4.8 kmh NE -- 29.61 in1002.7 mb 0.00 in0.0 mm 0.00 in0.0 mm 0.00 in0.0 mm
11:55 AM 50.4°F10.2°C 40.3°F4.6°C 68% 4.0 mph NNE6.4 kmh NNE -- 29.61 in1002.7 mb 0.00 in0.0 mm 0.00 in0.0 mm 0.00 in0.0 mm
12:00 PM 50.5°F10.3°C 41.2°F5.1°C 70% 4.0 mph NE6.4 kmh NE -- 29.61 in1002.7 mb 0.00 in0.0 mm 0.00 in0.0 mm 0.00 in0.0 mm
12:05 PM 50.6°F10.3°C 40.8°F4.9°C 69% 4.0 mph NE6.4 kmh NE 8.0 mph12.9 kmh 29.61 in1002.7 mb 0.00 in0.0 mm 0.00 in0.0 mm 0.00 in0.0 mm
12:10 PM 50.6°F10.3°C 40.8°F4.9°C 69% 4.0 mph NE6.4 kmh NE -- 29.61 in1002.7 mb 0.00 in0.0 mm 0.00 in0.0 mm 0.00 in0.0 mm
12:15 PM 50.6°F10.3°C 40.8°F4.9°C 69% 4.0 mph NE6.4 kmh NE -- 29.61 in1002.7 mb 0.00 in0.0 mm 0.00 in0.0 mm 0.00 in0.0 mm
12:20 PM 50.7°F10.4°C 40.5°F4.7°C 68% 4.0 mph NE6.4 kmh NE -- 29.61 in1002.7 mb 0.00 in0.0 mm 0.00 in0.0 mm 0.00 in0.0 mm
12:25 PM 50.6°F10.3°C 40.5°F4.7°C 68% 5.0 mph NNE8.0 kmh NNE -- 29.62 in1003.0 mb 0.00 in0.0 mm 0.00 in0.0 mm 0.00 in0.0 mm
12:30 PM 50.7°F10.4°C 41.0°F5.0°C 69% 5.0 mph NE8.0 kmh NE 8.0 mph12.9 kmh 29.62 in1003.0 mb 0.00 in0.0 mm 0.00 in0.0 mm 0.00 in0.0 mm
12:35 PM 51.0°F10.6°C 41.7°F5.4°C 70% 5.0 mph NE8.0 kmh NE -- 29.62 in1003.0 mb 0.00 in0.0 mm 0.00 in0.0 mm 0.00 in0.0 mm
12:40 PM 51.0°F10.6°C 40.8°F4.9°C 68% 7.0 mph ENE11.3 kmh ENE -- 29.62 in1003.0 mb 0.00 in0.0 mm 0.00 in0.0 mm 0.00 in0.0 mm
12:45 PM 50.8°F10.4°C 41.0°F5.0°C 69% 2.0 mph NE3.2 kmh NE -- 29.62 in1003.0 mb 0.00 in0.0 mm 0.00 in0.0 mm 0.00 in0.0 mm
12:50 PM 50.8°F10.4°C 41.0°F5.0°C 69% 6.0 mph NE9.7 kmh NE -- 29.62 in1003.0 mb 0.00 in0.0 mm 0.00 in0.0 mm 0.00 in0.0 mm
12:55 PM 51.0°F10.6°C 41.2°F5.1°C 69% 3.0 mph NE4.8 kmh NE 8.0 mph12.9 kmh 29.62 in1003.0 mb 0.00 in0.0 mm 0.00 in0.0 mm 0.00 in0.0 mm
01:00 PM 51.2°F10.7°C 41.0°F5.0°C 68% 4.0 mph NE6.4 kmh NE -- 29.62 in1003.0 mb 0.00 in0.0 mm 0.00 in0.0 mm 0.00 in0.0 mm
01:05 PM 51.2°F10.7°C 40.6°F4.8°C 67% 1.0 mph NE1.6 kmh NE -- 29.62 in1003.0 mb 0.00 in0.0 mm 0.00 in0.0 mm 0.00 in0.0 mm
01:10 PM 51.1°F10.6°C 40.8°F4.9°C 68% 6.0 mph NNE9.7 kmh NNE -- 29.62 in1003.0 mb 0.00 in0.0 mm 0.00 in0.0 mm 0.00 in0.0 mm
01:15 PM 51.1°F10.6°C 41.2°F5.1°C 69% 5.0 mph NE8.0 kmh NE -- 29.62 in1003.0 mb 0.00 in0.0 mm 0.00 in0.0 mm 0.00 in0.0 mm
01:20 PM 51.0°F10.6°C 41.2°F5.1°C 69% 7.0 mph NE11.3 kmh NE 7.0 mph11.3 kmh 29.63 in1003.4 mb 0.00 in0.0 mm 0.00 in0.0 mm 0.00 in0.0 mm
01:25 PM 51.0°F10.6°C 41.2°F5.1°C 69% 6.0 mph NE9.7 kmh NE -- 29.62 in1003.0 mb 0.00 in0.0 mm 0.00 in0.0 mm 0.00 in0.0 mm
01:30 PM 50.8°F10.4°C 40.1°F4.5°C 67% 3.0 mph NE4.8 kmh NE -- 29.62 in1003.0 mb 0.00 in0.0 mm 0.00 in0.0 mm 0.00 in0.0 mm
01:35 PM 50.9°F10.5°C 41.2°F5.1°C 69% 4.0 mph NE6.4 kmh NE -- 29.63 in1003.4 mb 0.00 in0.0 mm 0.00 in0.0 mm 0.00 in0.0 mm
01:40 PM 51.1°F10.6°C 41.2°F5.1°C 69% 4.0 mph NE6.4 kmh NE -- 29.63 in1003.4 mb 0.00 in0.0 mm 0.00 in0.0 mm 0.00 in0.0 mm
01:45 PM 50.9°F10.5°C 41.2°F5.1°C 69% 5.0 mph NE8.0 kmh NE 7.0 mph11.3 kmh 29.63 in1003.4 mb 0.00 in0.0 mm 0.00 in0.0 mm 0.00 in0.0 mm
01:50 PM 50.8°F10.4°C 41.0°F5.0°C 69% 4.0 mph NE6.4 kmh NE -- 29.63 in1003.4 mb 0.00 in0.0 mm 0.00 in0.0 mm 0.00 in0.0 mm
01:55 PM 50.8°F10.4°C 41.0°F5.0°C 69% 4.0 mph NE6.4 kmh NE -- 29.63 in1003.4 mb 0.00 in0.0 mm 0.00 in0.0 mm 0.00 in0.0 mm
02:00 PM 50.7°F10.4°C 40.5°F4.7°C 68% 2.0 mph NE3.2 kmh NE -- 29.63 in1003.4 mb 0.00 in0.0 mm 0.00 in0.0 mm 0.00 in0.0 mm
02:05 PM 50.8°F10.4°C 40.5°F4.7°C 68% 3.0 mph NE4.8 kmh NE -- 29.63 in1003.4 mb 0.00 in0.0 mm 0.00 in0.0 mm 0.00 in0.0 mm
02:10 PM 50.7°F10.4°C 40.5°F4.7°C 68% 5.0 mph NE8.0 kmh NE 6.0 mph9.7 kmh 29.63 in1003.4 mb 0.00 in0.0 mm 0.00 in0.0 mm 0.00 in0.0 mm
02:15 PM 50.6°F10.3°C 40.5°F4.7°C 68% 3.0 mph NE4.8 kmh NE -- 29.63 in1003.4 mb 0.00 in0.0 mm 0.00 in0.0 mm 0.00 in0.0 mm
02:20 PM 50.5°F10.3°C 39.9°F4.4°C 67% 3.0 mph NNE4.8 kmh NNE -- 29.64 in1003.7 mb 0.00 in0.0 mm 0.00 in0.0 mm 0.00 in0.0 mm
02:25 PM 50.5°F10.3°C 40.5°F4.7°C 68% 3.0 mph NE4.8 kmh NE -- 29.64 in1003.7 mb 0.00 in0.0 mm 0.00 in0.0 mm 0.00 in0.0 mm
02:30 PM 50.4°F10.2°C 40.3°F4.6°C 68% 5.0 mph NE8.0 kmh NE -- 29.64 in1003.7 mb 0.00 in0.0 mm 0.00 in0.0 mm 0.00 in0.0 mm
02:35 PM 50.4°F10.2°C 40.3°F4.6°C 68% 4.0 mph NE6.4 kmh NE 5.0 mph8.0 kmh 29.64 in1003.7 mb 0.00 in0.0 mm 0.00 in0.0 mm 0.00 in0.0 mm
02:40 PM 50.4°F10.2°C 40.3°F4.6°C 68% 3.0 mph NNE4.8 kmh NNE -- 29.64 in1003.7 mb 0.00 in0.0 mm 0.00 in0.0 mm 0.00 in0.0 mm
02:45 PM 50.5°F10.3°C 40.5°F4.7°C 68% 4.0 mph NNE6.4 kmh NNE -- 29.64 in1003.7 mb 0.00 in0.0 mm 0.00 in0.0 mm 0.00 in0.0 mm
02:50 PM 50.4°F10.2°C 40.3°F4.6°C 68% 3.0 mph NE4.8 kmh NE -- 29.64 in1003.7 mb 0.00 in0.0 mm 0.00 in0.0 mm 0.00 in0.0 mm
02:55 PM 50.4°F10.2°C 40.6°F4.8°C 69% 2.0 mph NE3.2 kmh NE -- 29.64 in1003.7 mb 0.00 in0.0 mm 0.00 in0.0 mm 0.00 in0.0 mm
03:00 PM 50.4°F10.2°C 40.3°F4.6°C 68% 2.0 mph NE3.2 kmh NE 3.0 mph4.8 kmh 29.64 in1003.7 mb 0.00 in0.0 mm 0.00 in0.0 mm 0.00 in0.0 mm
03:05 PM 50.4°F10.2°C 40.3°F4.6°C 68% 1.0 mph NE1.6 kmh NE -- 29.64 in1003.7 mb 0.00 in0.0 mm 0.00 in0.0 mm 0.00 in0.0 mm
03:10 PM 50.4°F10.2°C 40.6°F4.8°C 69% Calm Calm -- 29.64 in1003.7 mb 0.00 in0.0 mm 0.00 in0.0 mm 0.00 in0.0 mm
03:15 PM 50.3°F10.2°C 40.6°F4.8°C 69% 1.0 mph NE1.6 kmh NE -- 29.64 in1003.7 mb 0.00 in0.0 mm 0.00 in0.0 mm 0.00 in0.0 mm
03:20 PM 50.3°F10.2°C 41.0°F5.0°C 70% Calm Calm -- 29.64 in1003.7 mb 0.00 in0.0 mm 0.00 in0.0 mm 0.00 in0.0 mm
03:25 PM 50.3°F10.2°C 41.0°F5.0°C 70% 1.0 mph NE1.6 kmh NE 2.0 mph3.2 kmh 29.64 in1003.7 mb 0.00 in0.0 mm 0.00 in0.0 mm 0.00 in0.0 mm
03:30 PM 50.3°F10.2°C 41.0°F5.0°C 70% Calm Calm -- 29.64 in1003.7 mb 0.00 in0.0 mm 0.00 in0.0 mm 0.00 in0.0 mm
03:35 PM 50.4°F10.2°C 41.4°F5.2°C 71% Calm Calm -- 29.64 in1003.7 mb 0.00 in0.0 mm 0.00 in0.0 mm 0.00 in0.0 mm
03:40 PM 50.4°F10.2°C 41.4°F5.2°C 71% Calm Calm -- 29.65 in1004.1 mb 0.00 in0.0 mm 0.00 in0.0 mm 0.00 in0.0 mm
03:45 PM 50.4°F10.2°C 41.0°F5.0°C 70% 1.0 mph NE1.6 kmh NE -- 29.65 in1004.1 mb 0.00 in0.0 mm 0.00 in0.0 mm 0.00 in0.0 mm
03:50 PM 50.3°F10.2°C 40.3°F4.6°C 68% Calm Calm 3.0 mph4.8 kmh 29.65 in1004.1 mb 0.00 in0.0 mm 0.00 in0.0 mm 0.00 in0.0 mm
03:55 PM 50.3°F10.2°C 40.6°F4.8°C 69% Calm Calm -- 29.65 in1004.1 mb 0.00 in0.0 mm 0.00 in0.0 mm 0.00 in0.0 mm
04:00 PM 50.3°F10.2°C 40.6°F4.8°C 69% 1.0 mph NE1.6 kmh NE -- 29.65 in1004.1 mb 0.00 in0.0 mm 0.00 in0.0 mm 0.00 in0.0 mm
04:05 PM 50.3°F10.2°C 40.6°F4.8°C 69% Calm Calm -- 29.65 in1004.1 mb 0.00 in0.0 mm 0.00 in0.0 mm 0.00 in0.0 mm
04:10 PM 50.2°F10.1°C 40.5°F4.7°C 69% Calm Calm -- 29.65 in1004.1 mb 0.00 in0.0 mm 0.00 in0.0 mm 0.00 in0.0 mm
04:15 PM 50.1°F10.1°C 41.2°F5.1°C 71% 1.0 mph NNW1.6 kmh NNW 5.0 mph8.0 kmh 29.65 in1004.1 mb 0.00 in0.0 mm 0.00 in0.0 mm 0.00 in0.0 mm
04:20 PM 49.7°F9.8°C 41.0°F5.0°C 72% 3.0 mph NW4.8 kmh NW -- 29.65 in1004.1 mb 0.00 in0.0 mm 0.00 in0.0 mm 0.00 in0.0 mm
04:25 PM 49.4°F9.7°C 41.2°F5.1°C 73% 1.0 mph NW1.6 kmh NW -- 29.65 in1004.1 mb 0.00 in0.0 mm 0.00 in0.0 mm 0.00 in0.0 mm
04:30 PM 49.3°F9.6°C 41.4°F5.2°C 74% 2.0 mph NW3.2 kmh NW -- 29.65 in1004.1 mb 0.00 in0.0 mm 0.00 in0.0 mm 0.00 in0.0 mm
04:35 PM 49.2°F9.6°C 41.4°F5.2°C 74% Calm Calm -- 29.65 in1004.1 mb 0.00 in0.0 mm 0.00 in0.0 mm 0.00 in0.0 mm
04:40 PM 49.4°F9.7°C 41.5°F5.3°C 74% 2.0 mph NW3.2 kmh NW 5.0 mph8.0 kmh 29.66 in1004.4 mb 0.00 in0.0 mm 0.00 in0.0 mm 0.00 in0.0 mm
04:45 PM 49.4°F9.7°C 41.5°F5.3°C 74% 3.0 mph NW4.8 kmh NW -- 29.66 in1004.4 mb 0.00 in0.0 mm 0.00 in0.0 mm 0.00 in0.0 mm
04:50 PM 49.3°F9.6°C 41.7°F5.4°C 75% 2.0 mph NW3.2 kmh NW -- 29.66 in1004.4 mb 0.00 in0.0 mm 0.00 in0.0 mm 0.00 in0.0 mm
04:55 PM 49.2°F9.6°C 42.1°F5.6°C 76% 2.0 mph NW3.2 kmh NW -- 29.66 in1004.4 mb 0.00 in0.0 mm 0.00 in0.0 mm 0.00 in0.0 mm
05:00 PM 49.2°F9.6°C 42.1°F5.6°C 76% 2.0 mph NW3.2 kmh NW -- 29.66 in1004.4 mb 0.00 in0.0 mm 0.00 in0.0 mm 0.00 in0.0 mm
05:05 PM 49.0°F9.4°C 42.1°F5.6°C 77% 2.0 mph NW3.2 kmh NW 4.0 mph6.4 kmh 29.65 in1004.1 mb 0.00 in0.0 mm 0.00 in0.0 mm 0.00 in0.0 mm
05:10 PM 48.9°F9.4°C 42.1°F5.6°C 77% 4.0 mph NW6.4 kmh NW -- 29.66 in1004.4 mb 0.00 in0.0 mm 0.00 in0.0 mm 0.00 in0.0 mm
05:15 PM 48.8°F9.3°C 41.9°F5.5°C 77% 4.0 mph NW6.4 kmh NW -- 29.66 in1004.4 mb 0.00 in0.0 mm 0.00 in0.0 mm 0.00 in0.0 mm
05:20 PM 48.7°F9.3°C 42.3°F5.7°C 78% 4.0 mph NW6.4 kmh NW -- 29.66 in1004.4 mb 0.00 in0.0 mm 0.00 in0.0 mm 0.00 in0.0 mm
05:25 PM 48.6°F9.2°C 42.1°F5.6°C 78% 1.0 mph NW1.6 kmh NW -- 29.66 in1004.4 mb 0.00 in0.0 mm 0.00 in0.0 mm 0.00 in0.0 mm
05:30 PM 48.4°F9.1°C 41.9°F5.5°C 78% 3.0 mph NW4.8 kmh NW 4.0 mph6.4 kmh 29.66 in1004.4 mb 0.00 in0.0 mm 0.00 in0.0 mm 0.00 in0.0 mm
05:35 PM 48.2°F9.0°C 42.1°F5.6°C 79% 4.0 mph NW6.4 kmh NW -- 29.66 in1004.4 mb 0.00 in0.0 mm 0.00 in0.0 mm 0.00 in0.0 mm
05:40 PM 48.0°F8.9°C 41.9°F5.5°C 79% 4.0 mph NW6.4 kmh NW -- 29.66 in1004.4 mb 0.00 in0.0 mm 0.00 in0.0 mm 0.00 in0.0 mm
05:45 PM 47.9°F8.8°C 41.7°F5.4°C 79% 4.0 mph W6.4 kmh W -- 29.66 in1004.4 mb 0.00 in0.0 mm 0.00 in0.0 mm 0.00 in0.0 mm
05:50 PM 47.6°F8.7°C 41.7°F5.4°C 80% 5.0 mph W8.0 kmh W -- 29.66 in1004.4 mb 0.00 in0.0 mm 0.00 in0.0 mm 0.00 in0.0 mm
05:55 PM 47.3°F8.5°C 41.4°F5.2°C 80% 4.0 mph WSW6.4 kmh WSW 7.0 mph11.3 kmh 29.66 in1004.4 mb 0.00 in0.0 mm 0.00 in0.0 mm 0.00 in0.0 mm
06:00 PM 47.2°F8.4°C 41.4°F5.2°C 80% 5.0 mph WSW8.0 kmh WSW -- 29.66 in1004.4 mb 0.00 in0.0 mm 0.00 in0.0 mm 0.00 in0.0 mm
06:05 PM 47.0°F8.3°C 41.2°F5.1°C 80% 2.0 mph WSW3.2 kmh WSW -- 29.66 in1004.4 mb 0.00 in0.0 mm 0.00 in0.0 mm 0.00 in0.0 mm
06:10 PM 46.9°F8.3°C 41.2°F5.1°C 80% 4.0 mph WSW6.4 kmh WSW -- 29.66 in1004.4 mb 0.00 in0.0 mm 0.00 in0.0 mm 0.00 in0.0 mm
06:15 PM 46.7°F8.2°C 41.2°F5.1°C 81% 6.0 mph WSW9.7 kmh WSW -- 29.66 in1004.4 mb 0.00 in0.0 mm 0.00 in0.0 mm 0.00 in0.0 mm
06:20 PM 46.8°F8.2°C 41.0°F5.0°C 80% 4.0 mph WSW6.4 kmh WSW 7.0 mph11.3 kmh 29.67 in1004.7 mb 0.00 in0.0 mm 0.00 in0.0 mm 0.00 in0.0 mm
06:25 PM 47.1°F8.4°C 41.4°F5.2°C 80% 4.0 mph WSW6.4 kmh WSW -- 29.67 in1004.7 mb 0.00 in0.0 mm 0.00 in0.0 mm 0.00 in0.0 mm
06:30 PM 46.8°F8.2°C 41.0°F5.0°C 80% 3.0 mph WSW4.8 kmh WSW -- 29.67 in1004.7 mb 0.00 in0.0 mm 0.00 in0.0 mm 0.00 in0.0 mm
06:35 PM 46.8°F8.2°C 41.0°F5.0°C 80% 2.0 mph WSW3.2 kmh WSW -- 29.67 in1004.7 mb 0.00 in0.0 mm 0.00 in0.0 mm 0.00 in0.0 mm
06:40 PM 46.7°F8.2°C 41.0°F5.0°C 80% 3.0 mph WSW4.8 kmh WSW -- 29.67 in1004.7 mb 0.00 in0.0 mm 0.00 in0.0 mm 0.00 in0.0 mm
06:45 PM 46.4°F8.0°C 40.8°F4.9°C 81% 2.0 mph WSW3.2 kmh WSW 5.0 mph8.0 kmh 29.67 in1004.7 mb 0.00 in0.0 mm 0.00 in0.0 mm 0.00 in0.0 mm
06:50 PM 46.3°F7.9°C 40.6°F4.8°C 81% 4.0 mph WSW6.4 kmh WSW -- 29.67 in1004.7 mb 0.00 in0.0 mm 0.00 in0.0 mm 0.00 in0.0 mm
06:55 PM 46.2°F7.9°C 40.6°F4.8°C 81% 3.0 mph WSW4.8 kmh WSW -- 29.67 in1004.7 mb 0.00 in0.0 mm 0.00 in0.0 mm 0.00 in0.0 mm
07:00 PM 46.0°F7.8°C 40.5°F4.7°C 81% 3.0 mph WSW4.8 kmh WSW -- 29.67 in1004.7 mb 0.00 in0.0 mm 0.00 in0.0 mm 0.00 in0.0 mm
07:05 PM 46.0°F7.8°C 40.8°F4.9°C 82% 3.0 mph WSW4.8 kmh WSW -- 29.67 in1004.7 mb 0.00 in0.0 mm 0.00 in0.0 mm 0.00 in0.0 mm
07:10 PM 46.0°F7.8°C 40.5°F4.7°C 81% 5.0 mph W8.0 kmh W 6.0 mph9.7 kmh 29.67 in1004.7 mb 0.00 in0.0 mm 0.00 in0.0 mm 0.00 in0.0 mm
07:15 PM 46.0°F7.8°C 40.5°F4.7°C 81% 4.0 mph W6.4 kmh W -- 29.68 in1005.1 mb 0.00 in0.0 mm 0.00 in0.0 mm 0.00 in0.0 mm
07:20 PM 45.9°F7.7°C 40.6°F4.8°C 82% 4.0 mph W6.4 kmh W -- 29.68 in1005.1 mb 0.00 in0.0 mm 0.00 in0.0 mm 0.00 in0.0 mm
07:25 PM 46.0°F7.8°C 40.8°F4.9°C 82% 4.0 mph W6.4 kmh W -- 29.68 in1005.1 mb 0.00 in0.0 mm 0.00 in0.0 mm 0.00 in0.0 mm
07:30 PM 46.0°F7.8°C 40.5°F4.7°C 81% 3.0 mph W4.8 kmh W -- 29.68 in1005.1 mb 0.00 in0.0 mm 0.00 in0.0 mm 0.00 in0.0 mm
07:35 PM 45.9°F7.7°C 40.6°F4.8°C 82% 3.0 mph W4.8 kmh W 4.0 mph6.4 kmh 29.68 in1005.1 mb 0.00 in0.0 mm 0.00 in0.0 mm 0.00 in0.0 mm
07:40 PM 46.1°F7.8°C 40.5°F4.7°C 81% 1.0 mph W1.6 kmh W -- 29.68 in1005.1 mb 0.00 in0.0 mm 0.00 in0.0 mm 0.00 in0.0 mm
07:45 PM 46.1°F7.8°C 40.5°F4.7°C 81% 2.0 mph W3.2 kmh W -- 29.68 in1005.1 mb 0.00 in0.0 mm 0.00 in0.0 mm 0.00 in0.0 mm
07:50 PM 46.8°F8.2°C 41.2°F5.1°C 81% Calm Calm -- 29.68 in1005.1 mb 0.00 in0.0 mm 0.00 in0.0 mm 0.00 in0.0 mm
07:55 PM 47.1°F8.4°C 41.4°F5.2°C 80% 2.0 mph NW3.2 kmh NW -- 29.68 in1005.1 mb 0.00 in0.0 mm 0.00 in0.0 mm 0.00 in0.0 mm
08:00 PM 47.0°F8.3°C 41.2°F5.1°C 80% Calm Calm 3.0 mph4.8 kmh 29.68 in1005.1 mb 0.00 in0.0 mm 0.00 in0.0 mm 0.00 in0.0 mm
08:05 PM 47.1°F8.4°C 41.5°F5.3°C 81% 3.0 mph NW4.8 kmh NW -- 29.68 in1005.1 mb 0.00 in0.0 mm 0.00 in0.0 mm 0.00 in0.0 mm
08:10 PM 47.6°F8.7°C 42.1°F5.6°C 81% 1.0 mph N1.6 kmh N -- 29.68 in1005.1 mb 0.00 in0.0 mm 0.00 in0.0 mm 0.00 in0.0 mm
08:15 PM 47.7°F8.7°C 41.7°F5.4°C 80% Calm Calm -- 29.68 in1005.1 mb 0.00 in0.0 mm 0.00 in0.0 mm 0.00 in0.0 mm
08:20 PM 47.7°F8.7°C 42.1°F5.6°C 81% 6.0 mph NE9.7 kmh NE -- 29.68 in1005.1 mb 0.00 in0.0 mm 0.00 in0.0 mm 0.00 in0.0 mm
08:25 PM 48.2°F9.0°C 42.6°F5.9°C 81% Calm Calm 11.0 mph17.7 kmh 29.69 in1005.4 mb 0.00 in0.0 mm 0.00 in0.0 mm 0.00 in0.0 mm
08:30 PM 48.4°F9.1°C 42.4°F5.8°C 80% Calm Calm -- 29.68 in1005.1 mb 0.00 in0.0 mm 0.00 in0.0 mm 0.00 in0.0 mm
08:35 PM 48.4°F9.1°C 42.4°F5.8°C 80% 2.0 mph NE3.2 kmh NE -- 29.69 in1005.4 mb 0.00 in0.0 mm 0.00 in0.0 mm 0.00 in0.0 mm
08:40 PM 48.6°F9.2°C 42.6°F5.9°C 80% 2.0 mph NNE3.2 kmh NNE -- 29.69 in1005.4 mb 0.00 in0.0 mm 0.00 in0.0 mm 0.00 in0.0 mm
08:45 PM 48.7°F9.3°C 42.8°F6.0°C 80% 2.0 mph N3.2 kmh N -- 29.69 in1005.4 mb 0.00 in0.0 mm 0.00 in0.0 mm 0.00 in0.0 mm
08:50 PM 48.7°F9.3°C 42.8°F6.0°C 80% 2.0 mph NE3.2 kmh NE 6.0 mph9.7 kmh 29.69 in1005.4 mb 0.00 in0.0 mm 0.00 in0.0 mm 0.00 in0.0 mm
08:55 PM 48.7°F9.3°C 42.8°F6.0°C 80% Calm Calm -- 29.69 in1005.4 mb 0.00 in0.0 mm 0.00 in0.0 mm 0.00 in0.0 mm
09:00 PM 48.6°F9.2°C 42.3°F5.7°C 79% 5.0 mph NE8.0 kmh NE -- 29.69 in1005.4 mb 0.00 in0.0 mm 0.00 in0.0 mm 0.00 in0.0 mm
09:05 PM 48.7°F9.3°C 42.8°F6.0°C 80% 1.0 mph N1.6 kmh N -- 29.69 in1005.4 mb 0.00 in0.0 mm 0.00 in0.0 mm 0.00 in0.0 mm
09:10 PM 48.5°F9.2°C 42.6°F5.9°C 80% 3.0 mph NNW4.8 kmh NNW -- 29.69 in1005.4 mb 0.00 in0.0 mm 0.00 in0.0 mm 0.00 in0.0 mm
09:15 PM 48.3°F9.1°C 42.8°F6.0°C 81% Calm Calm 4.0 mph6.4 kmh 29.70 in1005.8 mb 0.00 in0.0 mm 0.00 in0.0 mm 0.00 in0.0 mm
09:20 PM 47.9°F8.8°C 42.3°F5.7°C 81% 2.0 mph NNW3.2 kmh NNW -- 29.70 in1005.8 mb 0.00 in0.0 mm 0.00 in0.0 mm 0.00 in0.0 mm
09:25 PM 47.8°F8.8°C 42.6°F5.9°C 82% Calm Calm -- 29.70 in1005.8 mb 0.00 in0.0 mm 0.00 in0.0 mm 0.00 in0.0 mm
09:30 PM 47.5°F8.6°C 42.3°F5.7°C 82% 3.0 mph NW4.8 kmh NW -- 29.70 in1005.8 mb 0.00 in0.0 mm 0.00 in0.0 mm 0.00 in0.0 mm
09:35 PM 47.4°F8.6°C 42.3°F5.7°C 82% 3.0 mph WNW4.8 kmh WNW -- 29.70 in1005.8 mb 0.00 in0.0 mm 0.00 in0.0 mm 0.00 in0.0 mm
09:40 PM 47.2°F8.4°C 41.9°F5.5°C 82% 2.0 mph WNW3.2 kmh WNW 6.0 mph9.7 kmh 29.70 in1005.8 mb 0.00 in0.0 mm 0.00 in0.0 mm 0.00 in0.0 mm
09:45 PM 47.2°F8.4°C 42.3°F5.7°C 83% 3.0 mph WNW4.8 kmh WNW -- 29.70 in1005.8 mb 0.00 in0.0 mm 0.00 in0.0 mm 0.00 in0.0 mm
09:50 PM 47.2°F8.4°C 42.3°F5.7°C 83% 2.0 mph WNW3.2 kmh WNW -- 29.70 in1005.8 mb 0.00 in0.0 mm 0.00 in0.0 mm 0.00 in0.0 mm
09:55 PM 47.1°F8.4°C 42.3°F5.7°C 83% 3.0 mph WNW4.8 kmh WNW -- 29.70 in1005.8 mb 0.00 in0.0 mm 0.00 in0.0 mm 0.00 in0.0 mm
10:00 PM 47.0°F8.3°C 42.1°F5.6°C 83% 3.0 mph WNW4.8 kmh WNW -- 29.70 in1005.8 mb 0.00 in0.0 mm 0.00 in0.0 mm 0.00 in0.0 mm
10:05 PM 46.9°F8.3°C 42.1°F5.6°C 83% 2.0 mph WNW3.2 kmh WNW 5.0 mph8.0 kmh 29.70 in1005.8 mb 0.00 in0.0 mm 0.00 in0.0 mm 0.00 in0.0 mm
10:10 PM 46.7°F8.2°C 41.9°F5.5°C 83% 3.0 mph W4.8 kmh W -- 29.70 in1005.8 mb 0.00 in0.0 mm 0.00 in0.0 mm 0.00 in0.0 mm
10:15 PM 46.3°F7.9°C 41.7°F5.4°C 84% 4.0 mph W6.4 kmh W -- 29.70 in1005.8 mb 0.00 in0.0 mm 0.00 in0.0 mm 0.00 in0.0 mm
10:20 PM 46.0°F7.8°C 41.7°F5.4°C 85% 4.0 mph W6.4 kmh W -- 29.71 in1006.1 mb 0.00 in0.0 mm 0.00 in0.0 mm 0.00 in0.0 mm
10:25 PM 46.1°F7.8°C 42.1°F5.6°C 86% 3.0 mph W4.8 kmh W -- 29.71 in1006.1 mb 0.00 in0.0 mm 0.00 in0.0 mm 0.00 in0.0 mm
10:30 PM 46.1°F7.8°C 41.7°F5.4°C 85% 3.0 mph WSW4.8 kmh WSW 5.0 mph8.0 kmh 29.71 in1006.1 mb 0.00 in0.0 mm 0.00 in0.0 mm 0.00 in0.0 mm
10:35 PM 46.1°F7.8°C 41.7°F5.4°C 85% 5.0 mph WSW8.0 kmh WSW -- 29.71 in1006.1 mb 0.00 in0.0 mm 0.00 in0.0 mm 0.00 in0.0 mm
10:40 PM 46.1°F7.8°C 41.7°F5.4°C 85% 3.0 mph W4.8 kmh W -- 29.71 in1006.1 mb 0.00 in0.0 mm 0.00 in0.0 mm 0.00 in0.0 mm
10:45 PM 46.2°F7.9°C 42.3°F5.7°C 86% 3.0 mph W4.8 kmh W -- 29.71 in1006.1 mb 0.00 in0.0 mm 0.00 in0.0 mm 0.00 in0.0 mm
10:50 PM 46.1°F7.8°C 42.1°F5.6°C 86% 4.0 mph W6.4 kmh W -- 29.71 in1006.1 mb 0.00 in0.0 mm 0.00 in0.0 mm 0.00 in0.0 mm
10:55 PM 46.1°F7.8°C 42.1°F5.6°C 86% 2.0 mph W3.2 kmh W 5.0 mph8.0 kmh 29.71 in1006.1 mb 0.00 in0.0 mm 0.00 in0.0 mm 0.00 in0.0 mm
11:00 PM 46.0°F7.8°C 42.1°F5.6°C 86% 4.0 mph W6.4 kmh W -- 29.71 in1006.1 mb 0.00 in0.0 mm 0.00 in0.0 mm 0.00 in0.0 mm
11:05 PM 45.9°F7.7°C 41.9°F5.5°C 86% 4.0 mph W6.4 kmh W -- 29.71 in1006.1 mb 0.00 in0.0 mm 0.00 in0.0 mm 0.00 in0.0 mm
11:10 PM 45.8°F7.7°C 41.9°F5.5°C 86% 5.0 mph W8.0 kmh W -- 29.71 in1006.1 mb 0.00 in0.0 mm 0.00 in0.0 mm 0.00 in0.0 mm
11:15 PM 46.1°F7.8°C 42.1°F5.6°C 86% 2.0 mph WNW3.2 kmh WNW -- 29.71 in1006.1 mb 0.00 in0.0 mm 0.00 in0.0 mm 0.00 in0.0 mm
11:20 PM 46.3°F7.9°C 41.9°F5.5°C 85% 2.0 mph W3.2 kmh W 6.0 mph9.7 kmh 29.71 in1006.1 mb 0.00 in0.0 mm 0.00 in0.0 mm 0.00 in0.0 mm
11:25 PM 46.3°F7.9°C 41.9°F5.5°C 85% Calm Calm -- 29.71 in1006.1 mb 0.00 in0.0 mm 0.00 in0.0 mm 0.00 in0.0 mm
11:30 PM 46.3°F7.9°C 41.9°F5.5°C 85% Calm Calm -- 29.72 in1006.4 mb 0.00 in0.0 mm 0.00 in0.0 mm 0.00 in0.0 mm
11:35 PM 46.3°F7.9°C 42.3°F5.7°C 86% Calm Calm -- 29.72 in1006.4 mb 0.00 in0.0 mm 0.00 in0.0 mm 0.00 in0.0 mm
11:40 PM 46.4°F8.0°C 42.1°F5.6°C 85% 1.0 mph W1.6 kmh W -- 29.72 in1006.4 mb 0.00 in0.0 mm 0.00 in0.0 mm 0.00 in0.0 mm
11:45 PM 46.4°F8.0°C 42.4°F5.8°C 86% 1.0 mph W1.6 kmh W 2.0 mph3.2 kmh 29.72 in1006.4 mb 0.00 in0.0 mm 0.00 in0.0 mm 0.00 in0.0 mm
11:50 PM 46.6°F8.1°C 42.6°F5.9°C 86% 1.0 mph NNE1.6 kmh NNE -- 29.72 in1006.4 mb 0.00 in0.0 mm 0.00 in0.0 mm 0.00 in0.0 mm
11:55 PM 46.9°F8.3°C 42.6°F5.9°C 85% 3.0 mph NNE4.8 kmh NNE -- 29.72 in1006.4 mb 0.00 in0.0 mm 0.00 in0.0 mm 0.00 in0.0 mm